createdAt,value
2022-08-20T00:03:44.696Z,93.70
2022-08-20T00:06:19.935Z,94.00
2022-08-20T00:11:18.483Z,94.00
2022-08-20T00:13:52.588Z,95.90
2022-08-20T00:16:22.642Z,93.90
2022-08-20T00:18:49.781Z,99.90
2022-08-20T00:21:19.003Z,94.10
2022-08-20T00:23:49.454Z,94.20
2022-08-20T00:26:16.423Z,94.30
2022-08-20T00:31:14.000Z,96.40
2022-08-20T00:38:39.518Z,94.30
2022-08-20T00:41:09.032Z,99.90
2022-08-20T00:43:41.209Z,93.10
2022-08-20T00:46:16.563Z,99.90
2022-08-20T00:48:53.978Z,94.80
2022-08-20T00:51:35.925Z,93.40
2022-08-20T00:54:09.180Z,94.40
2022-08-20T00:56:37.189Z,94.70
2022-08-20T00:59:11.627Z,94.60
2022-08-20T01:01:55.842Z,99.90
2022-08-20T01:04:31.557Z,94.80
2022-08-20T01:09:49.754Z,99.90
2022-08-20T01:12:16.165Z,94.60
2022-08-20T01:14:46.262Z,99.90
2022-08-20T01:17:18.694Z,94.20
2022-08-20T01:19:50.387Z,95.00
2022-08-20T01:22:44.337Z,95.00
2022-08-20T01:25:21.700Z,95.20
2022-08-20T01:27:55.429Z,95.50
2022-08-20T01:30:26.776Z,95.60
2022-08-20T01:35:22.637Z,99.90
2022-08-20T01:40:40.664Z,95.80
2022-08-20T01:48:08.058Z,96.10
2022-08-20T01:50:41.842Z,96.00
2022-08-20T01:53:30.132Z,98.20
2022-08-20T02:18:14.284Z,96.50
2022-08-20T02:20:43.422Z,96.20
2022-08-20T02:23:12.085Z,96.20
2022-08-20T02:25:41.898Z,95.80
2022-08-20T02:28:12.019Z,96.50
2022-08-20T02:30:43.301Z,96.50
2022-08-20T02:33:13.309Z,96.50
2022-08-20T02:35:42.887Z,96.70
2022-08-20T02:38:10.683Z,96.60
2022-08-20T02:45:43.734Z,96.90
2022-08-20T02:48:21.512Z,97.00
2022-08-20T02:50:57.444Z,97.00
2022-08-20T02:53:26.576Z,97.10
2022-08-20T02:58:22.630Z,97.00
2022-08-20T03:00:50.655Z,96.40
2022-08-20T03:03:22.445Z,96.90
2022-08-20T03:05:51.923Z,97.30
2022-08-20T03:10:47.727Z,97.40
2022-08-20T03:13:16.493Z,97.50
2022-08-20T03:15:51.834Z,97.40
2022-08-20T03:18:21.592Z,97.50
2022-08-20T03:20:51.378Z,97.00
2022-08-20T03:23:21.363Z,97.80
2022-08-20T03:28:17.717Z,97.80
2022-08-20T03:33:12.213Z,99.90
2022-08-20T03:38:11.589Z,98.20
2022-08-20T03:43:08.869Z,98.20
2022-08-20T03:45:37.520Z,98.20
2022-08-20T03:48:07.644Z,98.50
2022-08-20T03:50:34.642Z,98.60
2022-08-20T03:53:02.893Z,98.40
2022-08-20T03:55:31.622Z,98.60
2022-08-20T03:58:03.939Z,98.60
2022-08-20T04:00:37.248Z,97.50
2022-08-20T04:08:03.266Z,99.10
2022-08-20T04:10:32.018Z,99.00
2022-08-20T04:20:25.980Z,98.60
2022-08-20T04:22:59.475Z,98.50
2022-08-20T04:25:35.837Z,98.70
2022-08-20T04:28:06.594Z,98.90
2022-08-20T04:30:34.606Z,98.90
2022-08-20T04:33:02.157Z,98.80
2022-08-20T04:35:30.379Z,98.60
2022-08-20T04:38:02.696Z,99.90
2022-08-20T04:43:37.266Z,99.90
2022-08-20T04:46:09.658Z,99.50
2022-08-20T04:51:10.311Z,99.90
2022-08-20T04:53:37.375Z,99.90
2022-08-20T04:58:34.797Z,99.90
2022-08-20T05:01:11.198Z,99.90
2022-08-20T05:03:39.849Z,99.80
2022-08-20T05:06:09.990Z,99.80
2022-08-20T05:08:38.635Z,99.50
2022-08-20T05:11:32.935Z,99.90
2022-08-20T05:21:21.360Z,99.90
2022-08-20T05:23:49.377Z,99.90
2022-08-20T05:31:32.317Z,99.90
2022-08-20T05:34:10.747Z,99.90
2022-08-20T05:36:41.120Z,99.90
2022-08-20T05:39:09.139Z,99.90
2022-08-20T05:46:32.085Z,99.90
2022-08-20T05:49:01.608Z,99.90
2022-08-20T05:53:59.126Z,99.90
2022-08-20T05:59:00.787Z,99.90
2022-08-20T06:09:16.646Z,99.90
2022-08-20T06:16:57.654Z,99.90
2022-08-20T06:19:27.182Z,99.90
2022-08-20T06:26:59.994Z,99.90
2022-08-20T06:29:28.633Z,99.90
2022-08-20T06:36:58.840Z,99.90
2022-08-20T06:39:28.551Z,99.90
2022-08-20T06:44:24.330Z,99.90
2022-08-20T06:51:46.496Z,99.90
2022-08-20T06:56:47.445Z,99.90
2022-08-20T07:04:09.333Z,99.90
2022-08-20T07:09:03.985Z,99.90
2022-08-20T07:18:54.308Z,99.90
2022-08-20T07:23:49.538Z,99.90
2022-08-20T07:28:44.127Z,99.90
2022-08-20T07:31:31.204Z,99.90
2022-08-20T07:36:27.362Z,99.90
2022-08-20T07:46:21.562Z,99.90
2022-08-20T07:48:50.527Z,99.90
2022-08-20T07:51:20.658Z,99.90
2022-08-20T07:53:49.014Z,99.90
2022-08-20T07:56:22.755Z,99.90
2022-08-20T07:58:55.709Z,99.90
2022-08-20T08:01:26.080Z,99.90
2022-08-20T08:03:53.998Z,99.90
2022-08-20T08:06:28.682Z,99.90
2022-08-20T08:09:04.779Z,99.90
2022-08-20T08:11:34.683Z,99.90
2022-08-20T08:14:03.157Z,99.90
2022-08-20T08:19:01.997Z,99.90
2022-08-20T08:28:58.252Z,99.90
2022-08-20T08:38:48.188Z,99.90
2022-08-20T08:41:34.766Z,99.90
2022-08-20T08:44:10.582Z,99.90
2022-08-20T08:46:41.913Z,99.90
2022-08-20T08:49:14.458Z,99.90
2022-08-20T08:51:45.488Z,99.90
2022-08-20T08:54:20.156Z,99.90
2022-08-20T08:59:19.305Z,99.90
2022-08-20T09:01:57.300Z,99.90
2022-08-20T09:04:38.098Z,99.90
2022-08-20T09:07:10.977Z,99.90
2022-08-20T09:09:41.818Z,99.90
2022-08-20T09:12:20.244Z,99.90
2022-08-20T09:14:49.041Z,99.90
2022-08-20T09:17:17.069Z,99.90
2022-08-20T09:22:17.998Z,99.90
2022-08-20T09:24:45.791Z,99.90
2022-08-20T09:29:41.025Z,99.90
2022-08-20T09:32:16.150Z,99.90
2022-08-20T09:34:47.287Z,99.90
2022-08-20T09:39:43.219Z,99.90
2022-08-20T09:42:20.475Z,99.90
2022-08-20T09:44:48.572Z,99.90
2022-08-20T09:49:46.915Z,99.90
2022-08-20T09:52:24.691Z,99.90
2022-08-20T09:54:55.421Z,99.90
2022-08-20T09:59:57.508Z,99.90
2022-08-20T10:02:26.282Z,99.90
2022-08-20T10:09:48.092Z,99.90
2022-08-20T10:22:04.735Z,99.90
2022-08-20T10:24:32.018Z,99.90
2022-08-20T10:27:00.800Z,99.90
2022-08-20T10:29:29.775Z,99.90
2022-08-20T10:34:25.578Z,99.90
2022-08-20T10:44:17.640Z,99.90
2022-08-20T10:51:40.615Z,99.90
2022-08-20T10:54:12.306Z,99.90
2022-08-20T11:01:36.722Z,99.90
2022-08-20T11:06:32.723Z,99.90
2022-08-20T11:11:27.908Z,99.90
2022-08-20T11:13:57.734Z,99.90
2022-08-20T11:23:52.875Z,99.90
2022-08-20T11:26:23.421Z,99.90
2022-08-20T11:28:50.784Z,99.90
2022-08-20T11:31:18.529Z,99.90
2022-08-20T11:36:13.364Z,99.90
2022-08-20T11:38:40.437Z,99.90
2022-08-20T11:46:02.252Z,99.90
2022-08-20T11:48:29.260Z,99.90
2022-08-20T11:55:52.533Z,99.90
2022-08-20T12:05:45.089Z,99.90
2022-08-20T12:08:25.132Z,99.90
2022-08-20T12:25:50.234Z,99.90
2022-08-20T12:28:17.610Z,99.90
2022-08-20T12:33:20.444Z,99.90
2022-08-20T12:35:47.456Z,99.90
2022-08-20T12:43:09.329Z,99.90
2022-08-20T12:45:37.274Z,99.90
2022-08-20T12:48:10.613Z,99.90
2022-08-20T12:50:40.226Z,99.90
2022-08-20T12:58:04.398Z,99.90
2022-08-20T13:00:43.162Z,99.90
2022-08-20T13:03:12.522Z,99.90
2022-08-20T13:05:41.295Z,99.90
2022-08-20T13:08:11.121Z,99.90
2022-08-20T13:10:44.569Z,99.90
2022-08-20T13:13:17.726Z,99.90
2022-08-20T13:15:49.306Z,99.90
2022-08-20T13:18:16.317Z,99.90
2022-08-20T13:20:43.458Z,99.90
2022-08-20T13:23:10.653Z,99.90
2022-08-20T13:28:06.116Z,99.90
2022-08-20T13:30:38.500Z,99.90
2022-08-20T13:33:05.513Z,99.90
2022-08-20T13:35:32.733Z,99.90
2022-08-20T13:45:22.539Z,99.90
2022-08-20T13:47:55.138Z,99.90
2022-08-20T13:50:26.092Z,99.90
2022-08-20T13:55:22.627Z,99.90
2022-08-20T13:57:51.025Z,99.90
2022-08-20T14:00:31.035Z,99.90
2022-08-20T14:03:01.021Z,99.90
2022-08-20T14:08:03.872Z,99.90
2022-08-20T14:13:00.245Z,99.90
2022-08-20T14:15:27.396Z,99.90
2022-08-20T14:17:56.375Z,99.90
2022-08-20T14:20:29.093Z,99.90
2022-08-20T14:22:58.227Z,99.90
2022-08-20T14:25:27.012Z,99.90
2022-08-20T14:27:55.138Z,99.90
2022-08-20T14:30:28.439Z,99.90
2022-08-20T14:32:56.437Z,99.90
2022-08-20T14:35:24.038Z,99.90
2022-08-20T14:37:53.416Z,99.90
2022-08-20T14:40:22.968Z,99.90
2022-08-20T14:45:20.494Z,99.90
2022-08-20T14:47:53.865Z,99.90
2022-08-20T14:50:33.770Z,99.90
2022-08-20T14:53:01.724Z,99.90
2022-08-20T14:55:32.317Z,99.90
2022-08-20T14:57:59.627Z,99.90
2022-08-20T15:00:30.137Z,99.90
2022-08-20T15:02:57.927Z,99.90
2022-08-20T15:05:25.421Z,99.90
2022-08-20T15:10:31.344Z,99.90
2022-08-20T15:12:59.564Z,99.90
2022-08-20T15:15:27.476Z,99.90
2022-08-20T15:17:57.149Z,99.90
2022-08-20T15:20:28.433Z,99.90
2022-08-20T15:22:55.762Z,99.90
2022-08-20T15:25:25.980Z,99.90
2022-08-20T15:27:58.386Z,99.90
2022-08-20T15:30:30.534Z,99.90
2022-08-20T15:35:26.956Z,99.90
2022-08-20T15:37:56.508Z,99.90
2022-08-20T15:40:28.174Z,99.90
2022-08-20T15:42:57.197Z,99.90
2022-08-20T15:50:48.449Z,99.90
2022-08-20T15:53:39.487Z,99.90
2022-08-20T15:56:34.110Z,99.90
2022-08-20T16:02:10.034Z,99.90
2022-08-20T16:04:39.820Z,99.90
2022-08-20T16:07:14.661Z,99.90
2022-08-20T16:10:01.789Z,99.90
2022-08-20T16:12:41.728Z,99.90
2022-08-20T16:15:12.593Z,99.90
2022-08-20T16:18:02.226Z,99.90
2022-08-20T16:20:39.743Z,99.90
2022-08-20T16:25:57.186Z,99.90
2022-08-20T16:28:34.156Z,99.90
2022-08-20T16:31:08.682Z,99.90
2022-08-20T16:33:55.703Z,99.90
2022-08-20T16:36:43.553Z,99.90
2022-08-20T16:39:49.768Z,99.90
2022-08-20T16:42:22.621Z,99.90
2022-08-20T16:44:53.239Z,99.90
2022-08-20T16:47:36.435Z,99.90
2022-08-20T16:50:17.913Z,99.90
2022-08-20T16:52:46.673Z,99.90
2022-08-20T16:55:14.863Z,99.90
2022-08-20T17:02:53.803Z,99.90
2022-08-20T17:05:23.559Z,99.90
2022-08-20T17:07:59.236Z,99.90
2022-08-20T17:10:53.754Z,99.90
2022-08-20T17:13:28.262Z,99.90
2022-08-20T17:16:20.895Z,99.90
2022-08-20T17:18:53.030Z,99.90
2022-08-20T17:21:27.524Z,99.90
2022-08-20T17:28:59.382Z,99.90
2022-08-20T17:41:36.296Z,99.90
2022-08-20T17:44:09.133Z,99.90
2022-08-20T17:46:43.966Z,99.90
2022-08-20T17:49:15.094Z,99.90
2022-08-20T17:51:49.158Z,99.90
2022-08-20T17:54:33.172Z,99.90
2022-08-20T17:57:05.493Z,99.90
2022-08-20T18:04:54.005Z,99.90
2022-08-20T18:07:31.531Z,99.90
2022-08-20T18:12:39.266Z,99.90
2022-08-20T18:20:55.010Z,99.90
2022-08-20T18:23:28.699Z,99.90
2022-08-20T18:26:06.520Z,99.90
2022-08-20T18:28:38.935Z,99.90
2022-08-20T18:31:09.127Z,99.90
2022-08-20T18:33:42.144Z,99.90
2022-08-20T18:36:17.962Z,99.90
2022-08-20T18:38:59.243Z,99.90
2022-08-20T18:41:41.649Z,99.90
2022-08-20T18:44:26.488Z,99.90
2022-08-20T18:47:02.019Z,99.90
2022-08-20T18:49:34.979Z,99.90
2022-08-20T18:52:30.338Z,99.90
2022-08-20T18:55:00.241Z,99.90
2022-08-20T19:03:26.444Z,99.90
2022-08-20T19:06:15.980Z,99.90
2022-08-20T19:08:51.764Z,99.90
2022-08-20T19:11:28.153Z,99.90
2022-08-20T19:14:24.780Z,99.90
2022-08-20T19:17:20.921Z,99.90
2022-08-20T19:20:05.431Z,99.90
2022-08-20T19:22:34.554Z,99.90
2022-08-20T19:27:30.694Z,99.90
2022-08-20T19:32:29.807Z,99.90
2022-08-20T19:35:07.318Z,99.90
2022-08-20T19:37:50.625Z,99.90
2022-08-20T19:40:29.039Z,99.90
2022-08-20T19:43:03.323Z,99.90
2022-08-20T19:48:16.854Z,99.90
2022-08-20T19:51:04.508Z,99.90
2022-08-20T19:53:34.331Z,99.90
2022-08-20T19:56:23.396Z,99.90
2022-08-20T19:59:02.778Z,99.90
2022-08-20T20:04:04.561Z,99.90
2022-08-20T20:06:38.349Z,99.90
2022-08-20T20:09:20.346Z,99.90
2022-08-20T20:11:52.968Z,99.90
2022-08-20T20:14:24.748Z,99.90
2022-08-20T20:16:52.551Z,99.90
2022-08-20T20:19:28.244Z,99.90
2022-08-20T20:22:19.239Z,99.90
2022-08-20T20:25:05.164Z,99.90
2022-08-20T20:30:09.056Z,99.90
2022-08-20T20:32:48.981Z,99.90
2022-08-20T20:35:46.332Z,99.90
2022-08-20T20:38:26.411Z,99.90
2022-08-20T20:40:56.979Z,99.90
2022-08-20T20:43:33.544Z,99.90
2022-08-20T20:46:08.012Z,99.90
2022-08-20T20:48:48.683Z,99.90
2022-08-20T20:51:23.744Z,99.90
2022-08-20T20:56:27.633Z,99.90
2022-08-20T20:58:55.999Z,99.90
2022-08-20T21:04:10.862Z,99.90
2022-08-20T21:06:38.471Z,99.90
2022-08-20T21:09:05.771Z,99.90
2022-08-20T21:11:32.872Z,99.90
2022-08-20T21:16:27.285Z,99.90
2022-08-20T21:21:21.564Z,99.90
2022-08-20T21:38:33.687Z,99.90
2022-08-20T21:50:58.859Z,99.90
2022-08-20T21:58:21.642Z,99.90
2022-08-20T22:03:17.221Z,99.90
2022-08-20T22:05:48.490Z,99.90
2022-08-20T22:08:15.590Z,99.90
2022-08-20T22:13:10.450Z,99.90
2022-08-20T22:23:04.121Z,99.90
2022-08-20T22:33:05.997Z,99.90
2022-08-20T22:35:34.835Z,99.90
2022-08-20T22:50:24.320Z,99.90
2022-08-20T23:00:18.562Z,99.90
2022-08-20T23:02:55.038Z,99.90
2022-08-20T23:05:25.157Z,99.90
2022-08-20T23:07:54.544Z,99.90
2022-08-20T23:20:14.881Z,99.90
2022-08-20T23:25:10.634Z,99.90
2022-08-20T23:27:46.999Z,99.90
2022-08-20T23:35:10.659Z,99.90
2022-08-20T23:37:43.281Z,99.90
2022-08-20T23:40:11.419Z,99.90
2022-08-20T23:59:52.888Z,99.90
